Time;durP1;ratioP1;P1;durP2;ratioP2;P2;SDS_P1;SDS_P2;PMS_P1;PMS_P2;Temp;Humidity;BMP_temperature;BMP_pressure;BME280_temperature;BME280_humidity;BME280_pressure;Samples;Min_cycle;Max_cycle;Signal;HPM_P1;HPM_P2
2023/10/22 00:01:16;;;;;;;5.57;2.30;;;11.80;35.70;;;;;;5025214;28;20471;-65
2023/10/22 00:03:44;;;;;;;6.03;1.70;;;11.80;35.70;;;;;;5022129;28;20602;-65
2023/10/22 00:06:11;;;;;;;5.00;1.60;;;11.80;35.50;;;;;;5021348;28;20469;-65
2023/10/22 00:08:37;;;;;;;5.20;1.90;;;11.80;35.60;;;;;;5023375;28;21002;-65
2023/10/22 00:11:04;;;;;;;4.30;1.83;;;11.70;35.70;;;;;;5024524;28;20459;-65
2023/10/22 00:13:30;;;;;;;4.40;1.93;;;11.60;35.70;;;;;;5023333;28;20463;-65
2023/10/22 00:15:57;;;;;;;3.90;1.80;;;11.60;35.70;;;;;;5023447;28;20800;-65
2023/10/22 00:18:24;;;;;;;5.00;1.67;;;11.60;35.80;;;;;;5024240;28;20462;-65
2023/10/22 00:20:52;;;;;;;6.17;1.60;;;11.50;35.90;;;;;;5026428;28;20462;-65
2023/10/22 00:23:18;;;;;;;7.60;1.73;;;11.50;35.80;;;;;;5024642;28;20837;-65
2023/10/22 00:25:45;;;;;;;3.90;1.80;;;11.50;35.80;;;;;;5024714;28;20490;-65
2023/10/22 00:28:12;;;;;;;3.80;1.70;;;11.40;35.70;;;;;;5021419;28;20479;-65
2023/10/22 00:30:39;;;;;;;4.10;1.80;;;11.40;35.70;;;;;;5022205;28;20467;-65
2023/10/22 00:33:06;;;;;;;6.17;1.60;;;11.40;36.00;;;;;;5023104;28;20459;-64
2023/10/22 00:35:33;;;;;;;5.03;2.20;;;11.40;35.60;;;;;;5022816;28;20526;-64
2023/10/22 00:38:01;;;;;;;4.67;2.03;;;11.40;35.50;;;;;;5039756;23;20492;-67
2023/10/22 00:40:27;;;;;;;7.67;1.93;;;11.50;35.70;;;;;;5039405;28;20978;-67
2023/10/22 00:42:55;;;;;;;5.77;2.00;;;11.40;35.90;;;;;;5042300;28;20458;-67
2023/10/22 00:45:22;;;;;;;5.47;1.80;;;11.50;35.80;;;;;;5029253;28;20518;-67
2023/10/22 00:47:49;;;;;;;3.97;1.80;;;11.40;35.80;;;;;;5027606;28;20483;-67
2023/10/22 00:50:16;;;;;;;4.20;1.90;;;11.40;35.90;;;;;;5025588;28;20489;-67
2023/10/22 00:52:43;;;;;;;4.67;1.70;;;11.30;36.00;;;;;;5022652;28;20813;-67
2023/10/22 00:55:13;;;;;;;8.63;2.00;;;11.40;35.90;;;;;;5023350;28;20569;-67
2023/10/22 00:57:40;;;;;;;4.10;1.87;;;11.30;35.80;;;;;;5022761;28;20469;-67
2023/10/22 01:00:08;;;;;;;4.33;1.60;;;11.30;35.70;;;;;;5025952;28;20467;-67
2023/10/22 01:02:35;;;;;;;4.50;1.80;;;11.30;35.90;;;;;;5017596;28;20507;-67
2023/10/22 01:05:02;;;;;;;4.20;1.77;;;11.30;36.10;;;;;;5006323;28;20958;-67
2023/10/22 01:07:30;;;;;;;3.77;1.63;;;11.20;36.10;;;;;;5005806;28;20564;-67
2023/10/22 01:09:57;;;;;;;6.33;1.67;;;11.20;36.00;;;;;;5003288;28;20949;-67
2023/10/22 01:12:34;;;;;;;7.80;1.70;;;11.20;36.00;;;;;;5011144;28;20460;-67
2023/10/22 01:15:01;;;;;;;5.77;1.50;;;11.10;36.10;;;;;;5010864;28;20529;-67
2023/10/22 01:17:27;;;;;;;4.33;1.57;;;11.10;35.80;;;;;;5012813;28;20459;-67
2023/10/22 01:19:54;;;;;;;4.13;1.37;;;11.10;35.90;;;;;;5011925;28;20827;-67
2023/10/22 01:22:21;;;;;;;4.03;1.47;;;11.00;35.80;;;;;;5009994;28;20584;-67
2023/10/22 01:24:49;;;;;;;5.20;1.47;;;11.00;35.90;;;;;;5005666;28;20492;-67
2023/10/22 01:27:16;;;;;;;3.33;1.10;;;11.00;35.90;;;;;;5013001;28;20587;-67
2023/10/22 01:29:43;;;;;;;4.23;1.50;;;11.00;35.80;;;;;;5015694;28;20514;-67
2023/10/22 01:32:09;;;;;;;4.07;1.67;;;11.00;35.90;;;;;;5009139;28;20486;-68
2023/10/22 01:34:36;;;;;;;4.00;1.70;;;11.00;35.90;;;;;;5016441;28;20506;-68
2023/10/22 01:37:03;;;;;;;4.17;1.47;;;11.00;35.90;;;;;;5010309;28;20460;-68
2023/10/22 01:39:30;;;;;;;4.20;1.70;;;10.90;35.90;;;;;;5007318;28;20479;-68
2023/10/22 01:41:58;;;;;;;4.97;1.80;;;10.90;36.00;;;;;;5007906;28;20472;-68
2023/10/22 01:44:25;;;;;;;8.50;2.30;;;10.90;35.90;;;;;;5004901;28;20486;-67
2023/10/22 01:46:52;;;;;;;3.43;1.30;;;10.90;35.90;;;;;;5005901;28;20491;-67
2023/10/22 01:49:18;;;;;;;5.00;1.27;;;10.90;36.00;;;;;;5007749;28;20828;-67
2023/10/22 01:51:45;;;;;;;4.53;1.37;;;10.90;35.90;;;;;;5008305;28;20498;-68
2023/10/22 01:54:12;;;;;;;4.40;1.87;;;10.90;35.90;;;;;;5006265;28;20483;-67
2023/10/22 01:56:39;;;;;;;5.57;1.97;;;10.90;35.80;;;;;;5009920;28;20469;-67
2023/10/22 01:59:07;;;;;;;4.50;1.70;;;10.90;35.80;;;;;;5003127;28;20471;-67
2023/10/22 02:01:33;;;;;;;5.23;1.80;;;10.90;35.80;;;;;;5008136;28;20479;-67
2023/10/22 02:04:00;;;;;;;3.90;1.50;;;10.90;35.60;;;;;;5006527;28;20992;-68
2023/10/22 02:06:27;;;;;;;4.40;1.80;;;10.90;35.60;;;;;;5007337;28;20465;-67
2023/10/22 02:08:54;;;;;;;4.57;1.60;;;10.90;35.70;;;;;;5002170;28;21041;-68
2023/10/22 02:11:21;;;;;;;5.70;1.50;;;10.90;35.60;;;;;;5006755;28;20456;-67
2023/10/22 02:13:48;;;;;;;3.70;1.53;;;11.00;35.70;;;;;;5005481;28;20468;-67
2023/10/22 02:16:16;;;;;;;3.70;1.27;;;11.00;35.60;;;;;;5008277;28;20464;-67
2023/10/22 02:18:42;;;;;;;3.50;1.30;;;11.00;35.40;;;;;;5010080;28;20578;-67
2023/10/22 02:21:10;;;;;;;4.10;1.40;;;11.00;35.20;;;;;;5007940;28;20468;-67
2023/10/22 02:23:38;;;;;;;5.47;1.40;;;11.00;35.20;;;;;;5006039;28;20968;-68
2023/10/22 02:26:05;;;;;;;3.73;1.23;;;11.00;35.30;;;;;;5008105;28;20464;-67
2023/10/22 02:28:32;;;;;;;4.00;1.30;;;11.00;35.30;;;;;;5006110;28;20965;-67
2023/10/22 02:30:59;;;;;;;4.00;1.20;;;11.00;35.30;;;;;;5011011;28;20478;-67
2023/10/22 02:33:27;;;;;;;4.47;1.40;;;10.90;35.40;;;;;;5024157;28;21024;-67
2023/10/22 02:35:55;;;;;;;4.30;1.40;;;10.90;35.40;;;;;;5026697;28;20479;-68
2023/10/22 02:38:21;;;;;;;6.63;1.20;;;10.90;35.40;;;;;;5027233;28;20974;-67
2023/10/22 02:40:49;;;;;;;5.63;1.70;;;10.90;35.40;;;;;;5027582;28;20462;-67
2023/10/22 02:43:16;;;;;;;4.07;1.13;;;10.90;35.50;;;;;;5027376;28;20462;-67
2023/10/22 02:45:49;;;;;;;3.80;1.10;;;10.80;35.40;;;;;;5022216;28;20478;-68
2023/10/22 02:48:16;;;;;;;3.87;1.10;;;10.80;35.60;;;;;;5025081;28;20479;-67
2023/10/22 02:50:44;;;;;;;5.40;1.53;;;10.80;35.60;;;;;;5026614;28;20478;-67
2023/10/22 02:53:12;;;;;;;5.53;1.27;;;10.80;35.60;;;;;;5023018;28;20887;-67
2023/10/22 02:55:39;;;;;;;5.50;1.10;;;10.80;35.50;;;;;;5025722;28;20491;-67
2023/10/22 02:58:06;;;;;;;3.53;1.00;;;10.80;35.60;;;;;;5025514;28;20494;-67
2023/10/22 03:00:34;;;;;;;3.87;1.20;;;10.80;35.50;;;;;;5023790;28;20463;-67
2023/10/22 03:03:01;;;;;;;3.70;1.30;;;10.80;35.60;;;;;;5007868;28;20602;-67
2023/10/22 03:05:27;;;;;;;5.07;1.50;;;10.80;35.50;;;;;;5005081;28;20848;-67
2023/10/22 03:07:55;;;;;;;3.50;1.07;;;10.80;35.60;;;;;;5005832;28;20487;-67
2023/10/22 03:10:22;;;;;;;3.80;1.10;;;10.80;35.40;;;;;;4996170;28;20480;-67
2023/10/22 03:12:49;;;;;;;3.80;1.30;;;10.70;35.40;;;;;;5005020;28;20825;-67
2023/10/22 03:15:16;;;;;;;5.43;1.10;;;10.70;35.50;;;;;;5005272;28;20479;-68
2023/10/22 03:17:42;;;;;;;3.77;1.47;;;10.70;35.50;;;;;;5007942;28;20460;-68
2023/10/22 03:20:10;;;;;;;3.17;0.93;;;10.70;36.10;;;;;;5009862;28;20955;-67
2023/10/22 03:22:37;;;;;;;4.00;1.27;;;10.70;35.50;;;;;;5008113;28;20876;-67
2023/10/22 03:25:07;;;;;;;5.93;1.57;;;10.70;35.60;;;;;;5006412;28;20549;-67
2023/10/22 03:27:34;;;;;;;3.67;1.23;;;10.70;35.50;;;;;;5005960;28;20519;-67
2023/10/22 03:30:03;;;;;;;3.47;1.13;;;10.80;35.40;;;;;;5006277;28;20469;-67
2023/10/22 03:32:30;;;;;;;3.50;1.13;;;10.80;35.20;;;;;;5008129;28;20994;-67
2023/10/22 03:34:57;;;;;;;8.80;1.63;;;10.80;34.80;;;;;;5002175;28;20496;-67
2023/10/22 03:37:24;;;;;;;3.70;1.30;;;10.70;35.20;;;;;;5006717;28;20486;-67
2023/10/22 03:39:51;;;;;;;3.60;1.30;;;10.70;35.40;;;;;;5000788;28;20472;-67
2023/10/22 03:42:19;;;;;;;4.80;1.43;;;10.70;35.50;;;;;;5001965;28;20914;-67
2023/10/22 03:44:45;;;;;;;3.70;1.17;;;10.60;35.30;;;;;;5006340;28;20482;-67
2023/10/22 03:47:12;;;;;;;5.10;1.30;;;10.60;35.40;;;;;;5003181;28;20464;-67
2023/10/22 03:49:39;;;;;;;7.33;1.50;;;10.60;35.40;;;;;;5006692;28;20452;-68
2023/10/22 03:52:06;;;;;;;3.70;1.30;;;10.50;35.40;;;;;;5007023;28;20482;-67
2023/10/22 03:54:33;;;;;;;3.90;1.40;;;10.50;35.40;;;;;;5005830;28;20479;-68
2023/10/22 03:56:59;;;;;;;3.73;1.20;;;10.50;35.40;;;;;;5003543;28;21159;-67
2023/10/22 03:59:27;;;;;;;3.60;1.23;;;10.50;35.20;;;;;;5003530;28;20459;-68
2023/10/22 04:01:55;;;;;;;3.90;1.40;;;10.40;35.20;;;;;;5001396;28;20488;-67
2023/10/22 04:04:22;;;;;;;7.63;1.30;;;10.40;35.20;;;;;;5008534;28;20485;-67
2023/10/22 04:06:49;;;;;;;5.57;1.30;;;10.40;35.20;;;;;;5008203;28;20463;-67
2023/10/22 04:09:15;;;;;;;3.10;0.80;;;10.40;35.30;;;;;;5007200;28;21283;-67
2023/10/22 04:11:42;;;;;;;3.93;1.13;;;10.40;35.40;;;;;;5003590;28;21792;-68
2023/10/22 04:14:09;;;;;;;3.50;1.10;;;10.30;35.40;;;;;;5003392;28;20499;-67
2023/10/22 04:16:37;;;;;;;4.40;1.30;;;10.40;35.50;;;;;;5004742;28;20991;-67
2023/10/22 04:19:03;;;;;;;3.70;1.20;;;10.30;35.60;;;;;;5006995;28;20456;-67
2023/10/22 04:21:30;;;;;;;3.73;1.40;;;10.30;35.40;;;;;;5010410;28;20463;-67
2023/10/22 04:23:57;;;;;;;6.43;1.70;;;10.30;35.40;;;;;;5003215;28;20836;-68
2023/10/22 04:26:24;;;;;;;4.30;1.20;;;10.30;35.40;;;;;;5004774;28;20468;-68
2023/10/22 04:28:50;;;;;;;4.27;1.30;;;10.20;35.40;;;;;;5007707;28;20476;-67
2023/10/22 04:31:17;;;;;;;4.10;1.30;;;10.20;35.50;;;;;;5007791;28;20488;-67
2023/10/22 04:33:45;;;;;;;3.67;1.50;;;10.20;35.60;;;;;;5002658;28;20467;-67
2023/10/22 04:36:16;;;;;;;6.03;2.07;;;10.10;35.70;;;;;;5008363;28;20845;-68
2023/10/22 04:38:43;;;;;;;4.10;1.80;;;10.10;35.70;;;;;;5007632;28;20557;-67
2023/10/22 04:41:10;;;;;;;4.57;1.73;;;10.10;35.80;;;;;;5005581;28;20469;-67
2023/10/22 04:43:37;;;;;;;4.00;1.53;;;10.10;35.90;;;;;;5002480;28;20468;-67
2023/10/22 04:46:04;;;;;;;3.70;1.57;;;10.10;36.10;;;;;;5004961;28;20468;-67
2023/10/22 04:48:31;;;;;;;5.60;1.70;;;10.10;36.10;;;;;;5010185;28;20478;-67
2023/10/22 04:51:04;;;;;;;4.07;1.70;;;10.10;36.10;;;;;;5007693;28;20473;-67
2023/10/22 04:53:31;;;;;;;3.50;1.50;;;10.00;36.20;;;;;;5009476;28;20464;-67
2023/10/22 04:55:59;;;;;;;5.77;1.43;;;10.00;36.70;;;;;;5011058;28;20476;-67
2023/10/22 04:58:27;;;;;;;3.60;1.33;;;10.00;36.10;;;;;;5009618;28;20460;-67
2023/10/22 05:00:54;;;;;;;4.83;1.57;;;9.90;36.20;;;;;;5007056;28;20498;-67
2023/10/22 05:03:21;;;;;;;3.60;1.50;;;9.90;36.20;;;;;;5008714;28;20458;-67
2023/10/22 05:05:48;;;;;;;4.00;2.10;;;9.90;36.10;;;;;;5008987;28;21051;-67
2023/10/22 05:08:16;;;;;;;4.43;1.90;;;9.90;36.20;;;;;;5009547;28;20488;-67
2023/10/22 05:10:42;;;;;;;4.30;1.70;;;9.90;36.10;;;;;;5007569;28;20464;-67
2023/10/22 05:13:10;;;;;;;4.33;1.40;;;9.90;36.20;;;;;;5006186;28;21052;-67
2023/10/22 05:15:37;;;;;;;4.50;1.80;;;9.80;36.10;;;;;;5011217;28;20482;-67
2023/10/22 05:18:05;;;;;;;4.40;1.90;;;9.80;36.20;;;;;;5010295;28;20467;-67
2023/10/22 05:20:32;;;;;;;4.33;1.70;;;9.80;36.00;;;;;;5005841;28;20947;-67
2023/10/22 05:22:59;;;;;;;4.37;1.77;;;9.80;36.10;;;;;;5011115;28;21051;-67
2023/10/22 05:25:27;;;;;;;4.50;1.70;;;9.80;36.20;;;;;;5010342;28;20487;-67
2023/10/22 05:27:54;;;;;;;7.33;2.13;;;9.80;36.20;;;;;;5013712;28;20471;-67
2023/10/22 05:30:20;;;;;;;4.47;1.80;;;9.70;36.20;;;;;;5007803;28;20493;-67
2023/10/22 05:32:47;;;;;;;4.40;1.90;;;9.70;36.30;;;;;;5007818;28;20468;-67
2023/10/22 05:35:14;;;;;;;4.50;1.90;;;9.70;36.40;;;;;;5007881;28;21038;-68
2023/10/22 05:37:43;;;;;;;4.50;2.10;;;9.70;36.60;;;;;;5013129;28;20877;-67
2023/10/22 05:40:11;;;;;;;4.17;1.83;;;9.70;36.60;;;;;;5009021;28;20491;-67
2023/10/22 05:42:39;;;;;;;5.07;2.30;;;9.70;36.60;;;;;;5012664;28;20487;-67
2023/10/22 05:45:06;;;;;;;6.70;2.63;;;9.60;36.50;;;;;;5009928;28;20478;-67
2023/10/22 05:47:33;;;;;;;6.83;2.50;;;9.60;36.50;;;;;;5006126;28;20463;-67
2023/10/22 05:50:00;;;;;;;4.20;2.10;;;9.70;36.60;;;;;;5012976;28;20491;-67
2023/10/22 05:52:28;;;;;;;5.03;2.60;;;9.70;36.70;;;;;;5010109;28;20478;-67
2023/10/22 05:54:55;;;;;;;6.20;2.30;;;9.60;36.60;;;;;;5009694;28;20498;-67
2023/10/22 05:57:23;;;;;;;6.20;2.87;;;9.60;36.60;;;;;;5006013;28;20469;-67
2023/10/22 05:59:51;;;;;;;8.50;2.87;;;9.60;37.30;;;;;;5010085;28;20502;-67
2023/10/22 06:02:17;;;;;;;7.17;3.27;;;9.60;36.70;;;;;;5003771;28;21018;-67
2023/10/22 06:04:44;;;;;;;7.00;3.10;;;9.60;36.70;;;;;;5003901;28;20487;-67
2023/10/22 06:07:11;;;;;;;5.97;2.47;;;9.70;36.90;;;;;;5005570;28;20827;-68
2023/10/22 06:09:37;;;;;;;4.43;2.17;;;9.70;36.70;;;;;;5011645;28;20483;-67
2023/10/22 06:12:05;;;;;;;7.77;2.97;;;9.70;36.80;;;;;;5009113;28;20464;-67
2023/10/22 06:14:31;;;;;;;7.40;2.50;;;9.70;36.70;;;;;;5003108;28;20480;-67
2023/10/22 06:16:59;;;;;;;5.83;3.10;;;9.80;36.70;;;;;;5005321;28;20474;-67
2023/10/22 06:19:26;;;;;;;4.97;2.70;;;9.80;36.90;;;;;;5009495;28;20455;-68
2023/10/22 06:21:53;;;;;;;5.97;2.97;;;10.00;36.90;;;;;;5007107;28;20472;-68
2023/10/22 06:24:21;;;;;;;5.20;2.60;;;10.20;36.90;;;;;;5008960;28;20483;-67
2023/10/22 06:26:48;;;;;;;4.33;2.53;;;10.30;36.70;;;;;;5006000;28;20459;-67
2023/10/22 06:29:14;;;;;;;5.43;2.47;;;10.60;36.50;;;;;;5001871;28;20484;-67
2023/10/22 06:31:41;;;;;;;7.40;2.27;;;10.90;35.40;;;;;;5024684;28;20486;-67
2023/10/22 06:34:09;;;;;;;4.87;1.90;;;11.50;33.80;;;;;;5030114;28;20475;-68
2023/10/22 06:36:36;;;;;;;5.50;2.33;;;12.20;32.20;;;;;;5029608;28;20510;-67
2023/10/22 06:39:03;;;;;;;3.50;1.47;;;13.00;30.30;;;;;;5026960;28;20459;-67
2023/10/22 06:41:30;;;;;;;6.33;1.40;;;13.70;27.90;;;;;;5030092;28;20467;-67
2023/10/22 06:43:57;;;;;;;3.90;1.40;;;14.40;24.40;;;;;;5029735;28;20470;-68
2023/10/22 06:46:23;;;;;;;3.53;1.37;;;15.00;22.60;;;;;;5028271;28;20533;-68
2023/10/22 06:48:50;;;;;;;3.80;1.27;;;15.40;21.50;;;;;;5029472;28;20486;-68
2023/10/22 06:51:19;;;;;;;5.17;1.70;;;15.70;20.50;;;;;;5029776;28;20466;-68
2023/10/22 06:53:47;;;;;;;5.50;2.00;;;15.90;19.60;;;;;;5025945;28;20471;-67
2023/10/22 06:56:14;;;;;;;4.63;1.40;;;16.10;18.70;;;;;;5025609;28;20466;-68
2023/10/22 06:58:41;;;;;;;5.43;1.23;;;16.30;18.40;;;;;;5025354;28;20455;-68
2023/10/22 07:01:10;;;;;;;3.70;1.10;;;16.40;17.00;;;;;;5017092;28;20574;-68
2023/10/22 07:03:38;;;;;;;5.23;1.40;;;16.50;16.80;;;;;;5008390;28;20464;-68
2023/10/22 07:06:05;;;;;;;3.53;1.10;;;16.60;15.80;;;;;;5006506;28;20464;-68
2023/10/22 07:08:33;;;;;;;3.60;1.40;;;16.70;15.40;;;;;;5004809;28;20479;-68
2023/10/22 07:11:01;;;;;;;3.30;1.10;;;16.70;15.90;;;;;;5005220;28;20844;-68
2023/10/22 07:13:28;;;;;;;4.80;1.20;;;16.80;15.70;;;;;;5012770;28;20460;-68
2023/10/22 07:15:55;;;;;;;3.70;1.50;;;16.80;16.40;;;;;;5010699;28;20480;-68
2023/10/22 07:18:22;;;;;;;4.17;1.30;;;16.90;15.50;;;;;;5008199;28;20468;-68
2023/10/22 07:20:50;;;;;;;3.57;1.40;;;16.90;15.40;;;;;;5003820;28;21164;-68
2023/10/22 07:23:17;;;;;;;3.57;1.40;;;17.10;14.80;;;;;;5030329;23;20579;-67
2023/10/22 07:25:46;;;;;;;5.07;1.60;;;17.20;14.30;;;;;;5040572;28;20865;-66
2023/10/22 07:28:15;;;;;;;3.60;1.10;;;17.30;13.40;;;;;;5042582;28;20477;-65
2023/10/22 07:30:47;;;;;;;4.60;1.20;;;17.50;12.90;;;;;;5037163;28;20475;-66
2023/10/22 07:33:14;;;;;;;3.23;1.10;;;17.90;12.10;;;;;;5040918;28;20466;-66
2023/10/22 07:35:40;;;;;;;3.77;1.33;;;18.70;10.90;;;;;;5037038;28;20482;-66
2023/10/22 07:38:07;;;;;;;6.30;1.40;;;19.10;9.40;;;;;;5042446;28;20458;-66
2023/10/22 07:40:37;;;;;;;4.03;1.27;;;19.20;8.90;;;;;;5043275;28;20549;-66
2023/10/22 07:43:05;;;;;;;3.80;1.33;;;19.40;8.90;;;;;;5043864;28;20528;-66
2023/10/22 07:45:32;;;;;;;3.80;1.33;;;19.50;8.40;;;;;;5039804;28;20520;-67
2023/10/22 07:47:59;;;;;;;4.30;1.67;;;19.60;7.70;;;;;;5044817;28;20519;-66
2023/10/22 07:50:26;;;;;;;3.80;1.37;;;19.90;7.30;;;;;;5045817;28;20488;-66
2023/10/22 07:52:52;;;;;;;3.50;1.20;;;20.40;6.30;;;;;;5040964;28;20486;-66
2023/10/22 07:55:19;;;;;;;4.00;1.70;;;21.30;4.70;;;;;;5044277;28;20485;-67
2023/10/22 07:57:46;;;;;;;4.87;1.43;;;22.30;3.10;;;;;;5043818;28;20912;-67
2023/10/22 08:00:15;;;;;;;3.90;1.10;;;23.30;1.50;;;;;;5044766;28;20958;-67
2023/10/22 08:02:41;;;;;;;4.67;1.30;;;23.90;1.00;;;;;;5038322;28;21009;-66
2023/10/22 08:05:09;;;;;;;4.00;1.37;;;24.70;1.00;;;;;;5039527;28;20485;-67
2023/10/22 08:07:36;;;;;;;3.40;1.07;;;25.70;1.00;;;;;;5041873;28;20464;-67
2023/10/22 08:10:03;;;;;;;3.63;0.87;;;26.80;1.00;;;;;;5042242;28;20474;-67
2023/10/22 08:12:30;;;;;;;3.90;1.17;;;27.70;1.00;;;;;;5046716;28;20455;-67
2023/10/22 08:14:56;;;;;;;4.23;0.80;;;28.50;1.00;;;;;;5043950;28;20485;-67
2023/10/22 08:17:24;;;;;;;3.40;0.90;;;29.40;1.00;;;;;;5043091;28;20469;-68
2023/10/22 08:19:51;;;;;;;5.43;1.63;;;30.20;1.00;;;;;;5041023;28;20810;-68
2023/10/22 08:22:19;;;;;;;3.80;1.30;;;30.80;1.00;;;;;;5046776;28;20465;-67
2023/10/22 08:24:48;;;;;;;5.00;1.10;;;31.50;1.00;;;;;;5044431;28;21028;-67
2023/10/22 08:27:15;;;;;;;3.70;0.63;;;32.00;1.00;;;;;;5047122;28;20488;-68
2023/10/22 08:29:41;;;;;;;3.10;0.70;;;32.60;1.00;;;;;;5044767;28;21011;-68
2023/10/22 08:32:08;;;;;;;3.20;0.93;;;33.10;1.00;;;;;;5044381;28;20500;-68
2023/10/22 08:34:36;;;;;;;4.07;1.33;;;33.70;1.00;;;;;;5046100;28;20494;-68
2023/10/22 08:37:04;;;;;;;4.00;0.90;;;34.40;1.00;;;;;;5038071;28;20465;-68
2023/10/22 08:39:31;;;;;;;5.00;0.97;;;34.80;1.00;;;;;;5048547;28;20465;-70
2023/10/22 08:42:02;;;;;;;5.30;1.10;;;35.00;1.00;;;;;;5045150;28;20537;-69
2023/10/22 08:44:30;;;;;;;3.10;0.80;;;35.20;1.00;;;;;;5046075;28;20488;-69
2023/10/22 08:46:57;;;;;;;5.40;1.10;;;35.50;1.00;;;;;;5044445;28;20616;-67
2023/10/22 08:49:23;;;;;;;4.90;1.47;;;35.90;1.00;;;;;;5047658;28;20485;-68
2023/10/22 08:51:52;;;;;;;4.60;1.03;;;36.40;1.00;;;;;;5040085;28;20828;-68
2023/10/22 08:54:18;;;;;;;5.03;0.90;;;36.60;1.00;;;;;;5046026;28;20861;-69
2023/10/22 08:56:46;;;;;;;6.00;1.20;;;37.00;1.00;;;;;;5048869;28;20467;-68
2023/10/22 08:59:13;;;;;;;4.30;1.20;;;37.40;1.00;;;;;;5041568;28;20462;-68
2023/10/22 09:01:39;;;;;;;2.97;0.83;;;37.60;1.00;;;;;;5046956;28;20480;-67
2023/10/22 09:04:06;;;;;;;3.37;0.80;;;37.90;1.00;;;;;;5041941;28;20540;-68
2023/10/22 09:06:33;;;;;;;3.60;1.20;;;38.10;1.00;;;;;;5046694;28;20462;-68
2023/10/22 09:09:03;;;;;;;4.10;1.17;;;38.20;1.00;;;;;;5044763;28;20465;-68
2023/10/22 09:11:30;;;;;;;4.17;1.10;;;38.40;1.00;;;;;;5042514;28;20450;-68
2023/10/22 09:13:56;;;;;;;2.90;0.77;;;38.50;1.00;;;;;;5039397;28;20780;-67
2023/10/22 09:16:30;;;;;;;3.30;1.00;;;38.70;1.00;;;;;;5039737;28;20482;-68
2023/10/22 09:18:58;;;;;;;3.70;1.20;;;38.70;1.00;;;;;;5046042;28;20468;-68
2023/10/22 09:21:25;;;;;;;4.27;1.07;;;38.60;1.00;;;;;;5047333;28;20838;-68
2023/10/22 09:24:05;;;;;;;4.43;1.00;;;38.70;1.00;;;;;;5044376;28;20798;-71
2023/10/22 09:26:42;;;;;;;4.77;1.10;;;38.90;1.00;;;;;;5037629;28;21190;-71
2023/10/22 09:29:08;;;;;;;6.10;1.33;;;38.80;1.00;;;;;;5044303;28;21043;-68
2023/10/22 09:31:35;;;;;;;3.43;1.20;;;38.70;1.00;;;;;;5044082;28;21213;-69
2023/10/22 09:34:02;;;;;;;6.10;1.17;;;38.80;1.00;;;;;;5043184;28;20981;-71
2023/10/22 09:36:29;;;;;;;3.40;1.10;;;38.90;1.00;;;;;;5043054;28;20490;-71
2023/10/22 09:38:57;;;;;;;4.23;1.00;;;39.10;1.00;;;;;;5043983;28;20845;-71
2023/10/22 09:41:29;;;;;;;3.23;1.07;;;39.20;1.00;;;;;;5046852;28;20451;-70
2023/10/22 09:43:57;;;;;;;5.70;1.30;;;39.20;1.00;;;;;;5046260;28;20894;-71
2023/10/22 09:46:30;;;;;;;4.10;1.03;;;39.30;1.00;;;;;;5047717;28;20497;-71
2023/10/22 09:48:59;;;;;;;3.87;1.10;;;39.20;1.00;;;;;;5037697;28;20467;-70
2023/10/22 09:51:30;;;;;;;3.70;1.10;;;39.10;1.00;;;;;;5048408;28;20524;-70
2023/10/22 09:53:58;;;;;;;3.40;1.00;;;39.10;1.00;;;;;;5041499;28;20978;-71
2023/10/22 09:56:25;;;;;;;4.30;0.80;;;38.90;1.00;;;;;;5045279;28;20466;-71
2023/10/22 09:59:01;;;;;;;4.47;1.10;;;38.70;1.00;;;;;;5048317;28;20821;-71
2023/10/22 10:01:31;;;;;;;4.17;1.10;;;38.40;1.00;;;;;;5047762;28;20552;-71
2023/10/22 10:03:59;;;;;;;3.97;0.93;;;38.00;1.00;;;;;;5041773;28;21663;-71
2023/10/22 10:06:26;;;;;;;4.00;1.20;;;37.70;1.00;;;;;;5044703;28;20458;-71
2023/10/22 10:08:54;;;;;;;5.77;1.30;;;37.20;1.00;;;;;;5045675;28;20840;-72
2023/10/22 10:11:22;;;;;;;5.53;1.00;;;37.00;1.00;;;;;;5043990;28;20501;-70
2023/10/22 10:13:48;;;;;;;4.13;1.53;;;36.80;1.00;;;;;;5047714;28;20458;-71
2023/10/22 10:16:17;;;;;;;3.63;0.90;;;36.60;1.00;;;;;;5048691;28;20543;-71
2023/10/22 10:19:03;;;;;;;3.10;0.83;;;36.10;1.00;;;;;;5042984;28;20543;-71
2023/10/22 10:21:43;;;;;;;4.40;1.00;;;35.60;1.00;;;;;;5047707;28;20511;-71
2023/10/22 10:24:21;;;;;;;3.83;0.70;;;35.10;1.00;;;;;;5044650;28;20482;-70
2023/10/22 10:26:50;;;;;;;5.63;1.10;;;34.70;1.00;;;;;;5043280;28;20504;-70
2023/10/22 10:29:18;;;;;;;3.57;0.77;;;34.20;1.00;;;;;;5047006;28;20559;-71
2023/10/22 10:31:48;;;;;;;4.53;0.83;;;33.40;1.00;;;;;;5043327;28;20560;-71
2023/10/22 10:34:23;;;;;;;4.47;1.20;;;32.80;1.00;;;;;;5039833;28;20520;-70
2023/10/22 10:36:51;;;;;;;3.60;0.83;;;32.40;1.00;;;;;;5047458;28;20458;-71
2023/10/22 10:39:36;;;;;;;4.30;1.00;;;32.10;1.00;;;;;;5046255;28;20465;-70
2023/10/22 10:42:03;;;;;;;3.83;0.97;;;31.40;1.00;;;;;;5044274;28;20465;-72
2023/10/22 10:44:31;;;;;;;3.87;0.90;;;31.00;1.00;;;;;;5043151;28;20482;-71
2023/10/22 10:47:32;;;;;;;4.00;1.10;;;30.50;1.00;;;;;;5040912;28;20464;-71
2023/10/22 10:50:02;;;;;;;5.70;1.50;;;29.80;1.00;;;;;;5043475;28;20514;-70
2023/10/22 10:52:29;;;;;;;3.77;0.90;;;29.20;1.00;;;;;;5049057;28;20950;-70
2023/10/22 10:55:00;;;;;;;3.77;1.03;;;28.60;1.00;;;;;;5041911;28;20486;-70
2023/10/22 10:57:34;;;;;;;3.37;0.90;;;28.30;1.00;;;;;;5043147;28;20466;-71
2023/10/22 11:00:02;;;;;;;3.80;0.97;;;27.70;1.00;;;;;;5050802;28;20489;-70
2023/10/22 11:02:28;;;;;;;3.53;0.90;;;27.40;1.00;;;;;;5045617;28;20557;-71
2023/10/22 11:04:56;;;;;;;4.07;0.90;;;27.20;1.00;;;;;;5048846;28;20474;-70
2023/10/22 11:07:24;;;;;;;3.63;0.97;;;27.00;1.00;;;;;;5044277;28;20474;-70
2023/10/22 11:09:51;;;;;;;3.87;1.17;;;26.70;1.00;;;;;;5039867;28;20982;-71
2023/10/22 11:12:20;;;;;;;4.83;0.80;;;26.50;1.00;;;;;;5041459;28;20990;-70
2023/10/22 11:14:54;;;;;;;5.07;1.30;;;26.40;1.00;;;;;;5044821;28;20491;-70
2023/10/22 11:17:21;;;;;;;3.73;0.97;;;26.40;1.00;;;;;;5039676;28;20490;-70
2023/10/22 11:19:51;;;;;;;3.83;1.10;;;26.40;1.00;;;;;;5043800;28;20478;-70
2023/10/22 11:22:20;;;;;;;3.27;0.80;;;26.40;1.00;;;;;;5045578;28;20466;-70
2023/10/22 11:24:47;;;;;;;5.23;1.00;;;26.50;1.00;;;;;;5048783;28;20474;-70
2023/10/22 11:27:16;;;;;;;3.80;0.90;;;26.50;1.00;;;;;;5046546;28;20509;-70
2023/10/22 11:29:43;;;;;;;5.17;0.90;;;26.50;1.00;;;;;;5041895;28;20517;-71
2023/10/22 11:32:14;;;;;;;3.50;0.97;;;26.50;1.00;;;;;;5046160;28;21089;-70
2023/10/22 11:34:51;;;;;;;4.30;1.00;;;26.80;1.00;;;;;;5037107;28;20505;-70
2023/10/22 11:37:28;;;;;;;5.50;1.20;;;26.90;1.00;;;;;;5044462;28;20466;-70
2023/10/22 11:39:55;;;;;;;4.13;0.90;;;27.00;1.00;;;;;;5043284;28;20458;-71
2023/10/22 11:42:21;;;;;;;3.00;0.70;;;27.10;1.00;;;;;;5043126;28;20842;-70
2023/10/22 11:44:49;;;;;;;4.60;1.00;;;27.20;1.00;;;;;;5044362;28;20489;-71
2023/10/22 11:47:24;;;;;;;3.50;1.07;;;27.40;1.00;;;;;;5046372;28;20470;-71
2023/10/22 11:49:51;;;;;;;4.17;0.70;;;27.40;1.00;;;;;;5045909;28;20964;-71
2023/10/22 11:52:19;;;;;;;3.87;0.70;;;27.30;1.00;;;;;;5043380;28;20469;-69
2023/10/22 11:54:48;;;;;;;3.60;0.80;;;27.30;1.00;;;;;;5044704;28;20489;-70
2023/10/22 11:57:14;;;;;;;3.47;0.60;;;27.20;1.00;;;;;;5045851;28;20593;-71
2023/10/22 11:59:41;;;;;;;5.20;0.87;;;27.30;1.00;;;;;;5039745;28;20950;-70
2023/10/22 12:02:08;;;;;;;3.90;0.80;;;27.10;1.00;;;;;;5041282;28;20533;-69
2023/10/22 12:04:35;;;;;;;3.70;0.73;;;27.00;1.00;;;;;;5042806;28;20989;-70
2023/10/22 12:07:04;;;;;;;3.43;0.90;;;27.00;1.00;;;;;;5047489;28;20442;-70
2023/10/22 12:09:31;;;;;;;4.33;0.83;;;27.00;1.00;;;;;;5043474;28;20467;-71
2023/10/22 12:11:59;;;;;;;3.00;0.73;;;26.90;1.00;;;;;;5032932;28;20488;-71
2023/10/22 12:14:26;;;;;;;3.47;0.90;;;26.90;1.00;;;;;;5037402;28;21261;-70
2023/10/22 12:16:52;;;;;;;7.23;1.20;;;26.80;1.00;;;;;;5021972;28;20481;-70
2023/10/22 12:19:19;;;;;;;3.43;0.60;;;26.80;1.00;;;;;;5022918;28;20469;-70
2023/10/22 12:21:46;;;;;;;3.77;0.90;;;26.80;1.00;;;;;;5032471;28;20992;-71
2023/10/22 12:24:12;;;;;;;3.50;0.93;;;26.70;1.00;;;;;;5029185;28;20496;-69
2023/10/22 12:26:39;;;;;;;4.33;1.10;;;26.50;1.00;;;;;;5034584;28;20462;-70
2023/10/22 12:29:07;;;;;;;3.60;0.70;;;26.30;1.00;;;;;;5042577;28;20462;-70
2023/10/22 12:31:34;;;;;;;3.77;0.57;;;26.10;1.00;;;;;;5040252;28;20489;-69
2023/10/22 12:34:01;;;;;;;3.70;0.87;;;25.90;1.00;;;;;;5043308;28;20508;-70
2023/10/22 12:36:28;;;;;;;3.73;0.70;;;25.70;1.00;;;;;;5042163;28;20969;-70
2023/10/22 12:38:54;;;;;;;3.27;0.70;;;25.50;1.00;;;;;;5045642;28;20461;-70
2023/10/22 12:41:22;;;;;;;4.40;1.00;;;25.20;1.00;;;;;;5040909;28;20459;-70
2023/10/22 12:43:48;;;;;;;5.27;1.23;;;24.80;1.00;;;;;;5036363;28;20476;-70
2023/10/22 12:46:17;;;;;;;4.37;0.93;;;24.30;1.00;;;;;;5041517;28;20839;-69
2023/10/22 12:48:44;;;;;;;3.57;0.77;;;23.90;1.00;;;;;;5040003;28;20457;-69
2023/10/22 12:51:11;;;;;;;4.53;0.70;;;23.50;1.00;;;;;;5043425;28;20481;-69
2023/10/22 12:53:37;;;;;;;4.30;0.80;;;23.20;1.00;;;;;;5035072;28;20474;-70
2023/10/22 12:56:04;;;;;;;3.80;1.00;;;23.00;1.00;;;;;;5040367;28;20463;-70